New Rooks County (RCP)
Stockton, KS
Field Elevation: 1999
Lat: 39°20.80N  Long: 99°18.28W
CTAF/Unicom Freq: 122.9000
   
    
Weather Advisories
2015-08-28   19:06 Z
Altimeter 29.93" Hg
Wind 320° @ 9 KT
Gusts 16 KT
Visibility 10 SM
Temperature 29° C (84° F)
Dewpoint 17° C (63° F)
Relative Humidity 49%
Density Altitude 4,000 feet
Condensation Altitude 7,800 feet
Heat Index: 30° C (86° F)
Wind and Runways
Indicated Runway = 36
Headwind = 7 kt
Crosswind = 6 kt
History
 
 
 
More Info
All DigiWx sites map
NOAA Forecast
 
Airport IQ 5010
(FLV) Sherman Airfield
(K68) Garnett Municipal Airport
 
about DigiWx
 
FAA Disclaimer: The data displayed is for advisory purposes only and is not to be used for flight planning or operations. For official data, please call (not available) to hear the current automated AWOS voice message.
  METAR RCP 281906Z AUTO 32009G16KT VIS 10 SM 29/17 A2993